sensor_id;sensor_type;location;lat;lon;timestamp;P1;P2;P0
65574;PMS5003;73096;55.050;73.422;2023-12-20T00:00:20;8.25;7.25;3.00
65574;PMS5003;73096;55.050;73.422;2023-12-20T00:03:23;8.50;7.00;3.00
65574;PMS5003;73096;55.050;73.422;2023-12-20T00:06:27;8.50;7.00;2.00
65574;PMS5003;73096;55.050;73.422;2023-12-20T00:09:30;8.00;5.00;2.00
65574;PMS5003;73096;55.050;73.422;2023-12-20T00:12:32;7.00;5.00;1.00
65574;PMS5003;73096;55.050;73.422;2023-12-20T00:15:35;5.25;5.00;1.00
65574;PMS5003;73096;55.050;73.422;2023-12-20T00:18:38;5.00;5.00;1.00
65574;PMS5003;73096;55.050;73.422;2023-12-20T00:21:40;4.25;3.50;1.00
65574;PMS5003;73096;55.050;73.422;2023-12-20T00:24:43;4.50;3.75;1.00
65574;PMS5003;73096;55.050;73.422;2023-12-20T00:27:46;5.00;4.00;1.25
65574;PMS5003;73096;55.050;73.422;2023-12-20T00:30:48;5.75;4.25;1.00
65574;PMS5003;73096;55.050;73.422;2023-12-20T00:33:51;5.00;4.67;1.00
65574;PMS5003;73096;55.050;73.422;2023-12-20T00:36:52;5.33;4.67;1.00
65574;PMS5003;73096;55.050;73.422;2023-12-20T00:39:55;6.00;6.00;2.00
65574;PMS5003;73096;55.050;73.422;2023-12-20T00:42:57;5.50;5.50;3.00
65574;PMS5003;73096;55.050;73.422;2023-12-20T00:46:00;7.75;6.25;2.00
65574;PMS5003;73096;55.050;73.422;2023-12-20T00:49:02;5.00;4.67;1.67
65574;PMS5003;73096;55.050;73.422;2023-12-20T00:52:04;6.75;5.00;2.00
65574;PMS5003;73096;55.050;73.422;2023-12-20T00:55:07;6.50;5.50;2.00
65574;PMS5003;73096;55.050;73.422;2023-12-20T00:58:09;10.00;8.67;3.33
65574;PMS5003;73096;55.050;73.422;2023-12-20T01:01:11;9.00;7.00;2.00
65574;PMS5003;73096;55.050;73.422;2023-12-20T01:04:15;12.00;10.00;4.00
65574;PMS5003;73096;55.050;73.422;2023-12-20T01:07:17;13.50;12.00;5.00
65574;PMS5003;73096;55.050;73.422;2023-12-20T01:10:20;15.25;14.00;6.00
65574;PMS5003;73096;55.050;73.422;2023-12-20T01:13:23;15.75;14.50;4.00
65574;PMS5003;73096;55.050;73.422;2023-12-20T01:16:25;16.00;15.00;5.25
65574;PMS5003;73096;55.050;73.422;2023-12-20T01:19:27;22.00;18.25;8.00
65574;PMS5003;73096;55.050;73.422;2023-12-20T01:22:31;18.25;17.50;8.75
65574;PMS5003;73096;55.050;73.422;2023-12-20T01:25:34;18.25;18.00;10.00
65574;PMS5003;73096;55.050;73.422;2023-12-20T01:28:38;20.33;17.00;10.00
65574;PMS5003;73096;55.050;73.422;2023-12-20T01:31:42;18.75;16.50;10.00
65574;PMS5003;73096;55.050;73.422;2023-12-20T01:34:45;17.25;16.00;8.00
65574;PMS5003;73096;55.050;73.422;2023-12-20T01:37:48;18.00;15.00;7.00
65574;PMS5003;73096;55.050;73.422;2023-12-20T01:40:51;19.00;18.00;8.00
65574;PMS5003;73096;55.050;73.422;2023-12-20T01:43:53;17.00;16.00;6.00
65574;PMS5003;73096;55.050;73.422;2023-12-20T01:46:57;20.00;19.00;9.33
65574;PMS5003;73096;55.050;73.422;2023-12-20T01:49:59;17.00;16.00;8.00
65574;PMS5003;73096;55.050;73.422;2023-12-20T01:53:01;22.00;16.00;9.00
65574;PMS5003;73096;55.050;73.422;2023-12-20T01:56:04;19.00;16.00;7.00
65574;PMS5003;73096;55.050;73.422;2023-12-20T01:59:06;18.75;17.00;8.00
65574;PMS5003;73096;55.050;73.422;2023-12-20T02:02:10;18.00;17.00;8.00
65574;PMS5003;73096;55.050;73.422;2023-12-20T02:05:16;17.00;16.00;8.00
65574;PMS5003;73096;55.050;73.422;2023-12-20T02:08:19;19.00;16.00;7.75
65574;PMS5003;73096;55.050;73.422;2023-12-20T02:11:22;19.00;15.00;7.67
65574;PMS5003;73096;55.050;73.422;2023-12-20T02:14:24;16.33;14.00;7.00
65574;PMS5003;73096;55.050;73.422;2023-12-20T02:17:27;17.33;14.00;7.00
65574;PMS5003;73096;55.050;73.422;2023-12-20T02:20:30;18.00;16.00;7.33
65574;PMS5003;73096;55.050;73.422;2023-12-20T02:23:33;17.00;15.33;6.00
65574;PMS5003;73096;55.050;73.422;2023-12-20T02:26:35;17.67;16.67;6.00
65574;PMS5003;73096;55.050;73.422;2023-12-20T02:29:40;19.00;17.00;7.00
65574;PMS5003;73096;55.050;73.422;2023-12-20T02:32:43;20.50;16.00;6.00
65574;PMS5003;73096;55.050;73.422;2023-12-20T02:35:46;19.00;16.00;8.00
65574;PMS5003;73096;55.050;73.422;2023-12-20T02:38:49;20.00;17.50;8.00
65574;PMS5003;73096;55.050;73.422;2023-12-20T02:41:52;19.00;18.00;7.00
65574;PMS5003;73096;55.050;73.422;2023-12-20T02:44:55;19.00;17.00;6.00
65574;PMS5003;73096;55.050;73.422;2023-12-20T02:47:58;16.00;14.00;6.00
65574;PMS5003;73096;55.050;73.422;2023-12-20T02:51:01;16.00;14.00;5.00
65574;PMS5003;73096;55.050;73.422;2023-12-20T02:54:05;15.00;14.00;5.00
65574;PMS5003;73096;55.050;73.422;2023-12-20T02:57:09;15.00;12.00;6.00
65574;PMS5003;73096;55.050;73.422;2023-12-20T03:00:12;17.00;13.00;6.00
65574;PMS5003;73096;55.050;73.422;2023-12-20T03:03:14;17.25;14.50;5.25
65574;PMS5003;73096;55.050;73.422;2023-12-20T03:06:19;17.00;16.50;6.00
65574;PMS5003;73096;55.050;73.422;2023-12-20T03:09:22;17.75;14.75;6.50
65574;PMS5003;73096;55.050;73.422;2023-12-20T03:12:26;17.75;17.00;7.25
65574;PMS5003;73096;55.050;73.422;2023-12-20T03:15:29;15.00;14.00;6.00
65574;PMS5003;73096;55.050;73.422;2023-12-20T03:18:32;16.00;12.75;6.00
65574;PMS5003;73096;55.050;73.422;2023-12-20T03:21:34;17.50;15.00;7.75
65574;PMS5003;73096;55.050;73.422;2023-12-20T03:24:36;19.00;15.00;6.00
65574;PMS5003;73096;55.050;73.422;2023-12-20T03:27:40;19.00;17.00;7.00
65574;PMS5003;73096;55.050;73.422;2023-12-20T03:30:42;19.00;18.00;8.00
65574;PMS5003;73096;55.050;73.422;2023-12-20T03:33:45;19.00;17.00;9.00
65574;PMS5003;73096;55.050;73.422;2023-12-20T03:36:48;19.00;15.75;6.00
65574;PMS5003;73096;55.050;73.422;2023-12-20T03:39:51;19.00;16.00;6.25
65574;PMS5003;73096;55.050;73.422;2023-12-20T03:42:53;19.67;16.33;7.67
65574;PMS5003;73096;55.050;73.422;2023-12-20T03:45:56;19.67;17.00;8.00
65574;PMS5003;73096;55.050;73.422;2023-12-20T03:49:00;19.50;18.25;9.00
65574;PMS5003;73096;55.050;73.422;2023-12-20T03:52:04;21.33;19.00;10.00
65574;PMS5003;73096;55.050;73.422;2023-12-20T03:55:06;24.00;20.00;11.00
65574;PMS5003;73096;55.050;73.422;2023-12-20T03:58:09;24.00;21.67;11.00
65574;PMS5003;73096;55.050;73.422;2023-12-20T04:01:13;24.00;21.50;12.50
65574;PMS5003;73096;55.050;73.422;2023-12-20T04:04:16;27.50;22.00;13.00
65574;PMS5003;73096;55.050;73.422;2023-12-20T04:07:18;26.25;22.00;13.00
65574;PMS5003;73096;55.050;73.422;2023-12-20T04:10:20;24.00;20.00;13.00
65574;PMS5003;73096;55.050;73.422;2023-12-20T04:13:23;24.50;22.00;13.00
65574;PMS5003;73096;55.050;73.422;2023-12-20T04:16:26;27.25;22.00;14.00
65574;PMS5003;73096;55.050;73.422;2023-12-20T04:19:28;28.25;24.00;15.00
65574;PMS5003;73096;55.050;73.422;2023-12-20T04:22:30;29.00;25.00;14.00
65574;PMS5003;73096;55.050;73.422;2023-12-20T04:25:32;27.00;22.50;14.00
65574;PMS5003;73096;55.050;73.422;2023-12-20T04:28:36;30.50;23.75;15.00
65574;PMS5003;73096;55.050;73.422;2023-12-20T04:31:39;30.00;24.00;15.00
65574;PMS5003;73096;55.050;73.422;2023-12-20T04:34:42;32.00;26.67;16.00
65574;PMS5003;73096;55.050;73.422;2023-12-20T04:37:44;30.25;24.25;15.00
65574;PMS5003;73096;55.050;73.422;2023-12-20T04:40:48;27.00;22.50;15.00
65574;PMS5003;73096;55.050;73.422;2023-12-20T04:43:51;26.67;22.00;14.00
65574;PMS5003;73096;55.050;73.422;2023-12-20T04:46:53;24.50;22.00;13.00
65574;PMS5003;73096;55.050;73.422;2023-12-20T04:49:55;23.00;20.00;13.00
65574;PMS5003;73096;55.050;73.422;2023-12-20T04:52:58;22.00;20.00;13.00
65574;PMS5003;73096;55.050;73.422;2023-12-20T04:56:00;21.50;19.00;13.00
65574;PMS5003;73096;55.050;73.422;2023-12-20T04:59:04;20.33;18.67;13.00
65574;PMS5003;73096;55.050;73.422;2023-12-20T05:02:07;21.75;20.00;12.00
65574;PMS5003;73096;55.050;73.422;2023-12-20T05:05:09;22.50;18.25;11.50
65574;PMS5003;73096;55.050;73.422;2023-12-20T05:08:11;22.00;20.00;13.00
65574;PMS5003;73096;55.050;73.422;2023-12-20T05:11:14;20.00;17.00;11.00
65574;PMS5003;73096;55.050;73.422;2023-12-20T05:14:17;20.00;17.50;10.25
65574;PMS5003;73096;55.050;73.422;2023-12-20T05:17:20;20.50;18.00;10.25
65574;PMS5003;73096;55.050;73.422;2023-12-20T05:20:23;20.00;17.00;11.00
65574;PMS5003;73096;55.050;73.422;2023-12-20T05:23:25;20.00;17.00;10.00
65574;PMS5003;73096;55.050;73.422;2023-12-20T05:26:27;19.00;15.50;9.00
65574;PMS5003;73096;55.050;73.422;2023-12-20T05:29:32;20.00;15.75;9.00
65574;PMS5003;73096;55.050;73.422;2023-12-20T05:32:34;20.00;17.75;9.00
65574;PMS5003;73096;55.050;73.422;2023-12-20T05:35:37;18.00;18.00;10.00
65574;PMS5003;73096;55.050;73.422;2023-12-20T05:38:40;22.75;19.75;12.00
65574;PMS5003;73096;55.050;73.422;2023-12-20T05:41:44;21.00;18.00;11.00
65574;PMS5003;73096;55.050;73.422;2023-12-20T05:44:46;19.33;17.00;9.00
65574;PMS5003;73096;55.050;73.422;2023-12-20T05:47:49;18.75;16.00;7.75
65574;PMS5003;73096;55.050;73.422;2023-12-20T05:50:52;20.25;17.00;10.00
65574;PMS5003;73096;55.050;73.422;2023-12-20T05:53:55;20.75;17.50;11.00
65574;PMS5003;73096;55.050;73.422;2023-12-20T05:56:57;18.50;17.00;10.00
65574;PMS5003;73096;55.050;73.422;2023-12-20T05:59:59;21.33;19.00;11.00
65574;PMS5003;73096;55.050;73.422;2023-12-20T06:03:02;23.50;21.00;14.00
65574;PMS5003;73096;55.050;73.422;2023-12-20T06:06:05;26.00;23.00;14.00
65574;PMS5003;73096;55.050;73.422;2023-12-20T06:09:08;25.50;22.00;14.00
65574;PMS5003;73096;55.050;73.422;2023-12-20T06:12:10;25.33;22.00;14.00
65574;PMS5003;73096;55.050;73.422;2023-12-20T06:15:13;23.00;21.00;14.00
65574;PMS5003;73096;55.050;73.422;2023-12-20T06:18:16;23.00;21.00;13.00
65574;PMS5003;73096;55.050;73.422;2023-12-20T06:21:18;23.00;21.00;14.00
65574;PMS5003;73096;55.050;73.422;2023-12-20T06:24:20;21.00;20.00;14.00
65574;PMS5003;73096;55.050;73.422;2023-12-20T06:27:25;21.00;19.00;14.00
65574;PMS5003;73096;55.050;73.422;2023-12-20T06:30:28;21.00;18.00;12.00
65574;PMS5003;73096;55.050;73.422;2023-12-20T06:33:30;19.00;19.00;11.00
65574;PMS5003;73096;55.050;73.422;2023-12-20T06:36:32;17.25;15.00;10.00
65574;PMS5003;73096;55.050;73.422;2023-12-20T06:39:35;18.50;16.00;9.00
65574;PMS5003;73096;55.050;73.422;2023-12-20T06:42:37;19.00;16.75;9.00
65574;PMS5003;73096;55.050;73.422;2023-12-20T06:45:39;19.00;17.00;9.00
65574;PMS5003;73096;55.050;73.422;2023-12-20T06:48:43;18.50;17.25;9.00
65574;PMS5003;73096;55.050;73.422;2023-12-20T06:51:47;19.00;18.50;9.50
65574;PMS5003;73096;55.050;73.422;2023-12-20T06:54:50;17.67;17.00;11.00
65574;PMS5003;73096;55.050;73.422;2023-12-20T06:57:52;22.00;19.00;12.00
65574;PMS5003;73096;55.050;73.422;2023-12-20T07:00:54;21.00;18.00;10.00
65574;PMS5003;73096;55.050;73.422;2023-12-20T07:03:57;19.00;18.75;9.00
65574;PMS5003;73096;55.050;73.422;2023-12-20T07:07:00;20.33;17.67;8.33
65574;PMS5003;73096;55.050;73.422;2023-12-20T07:10:03;22.00;19.00;9.50
65574;PMS5003;73096;55.050;73.422;2023-12-20T07:13:05;21.67;18.33;9.00
65574;PMS5003;73096;55.050;73.422;2023-12-20T07:16:08;21.00;19.00;10.00
65574;PMS5003;73096;55.050;73.422;2023-12-20T07:19:10;20.00;19.00;9.00
65574;PMS5003;73096;55.050;73.422;2023-12-20T07:22:13;21.00;21.00;11.00
65574;PMS5003;73096;55.050;73.422;2023-12-20T07:25:16;23.33;21.00;12.00
65574;PMS5003;73096;55.050;73.422;2023-12-20T07:28:21;20.50;19.75;12.00
65574;PMS5003;73096;55.050;73.422;2023-12-20T07:31:24;20.67;18.00;12.00
65574;PMS5003;73096;55.050;73.422;2023-12-20T07:34:27;23.00;19.75;12.00
65574;PMS5003;73096;55.050;73.422;2023-12-20T07:37:29;24.00;21.00;13.00
65574;PMS5003;73096;55.050;73.422;2023-12-20T07:40:31;23.00;19.00;13.00
65574;PMS5003;73096;55.050;73.422;2023-12-20T07:43:33;22.33;21.00;12.00
65574;PMS5003;73096;55.050;73.422;2023-12-20T07:46:36;22.00;20.00;14.00
65574;PMS5003;73096;55.050;73.422;2023-12-20T07:49:38;17.50;17.00;12.00
65574;PMS5003;73096;55.050;73.422;2023-12-20T07:52:42;16.67;16.00;8.00
65574;PMS5003;73096;55.050;73.422;2023-12-20T07:55:44;16.50;16.00;7.00
65574;PMS5003;73096;55.050;73.422;2023-12-20T07:58:46;18.75;16.50;9.00
65574;PMS5003;73096;55.050;73.422;2023-12-20T08:01:51;20.00;17.00;9.00
65574;PMS5003;73096;55.050;73.422;2023-12-20T08:04:54;19.00;14.00;9.00
65574;PMS5003;73096;55.050;73.422;2023-12-20T08:07:57;17.50;14.50;7.00
65574;PMS5003;73096;55.050;73.422;2023-12-20T08:11:01;15.50;15.00;7.00
65574;PMS5003;73096;55.050;73.422;2023-12-20T08:14:04;15.00;15.00;7.00
65574;PMS5003;73096;55.050;73.422;2023-12-20T08:17:07;16.25;15.00;7.00
65574;PMS5003;73096;55.050;73.422;2023-12-20T08:20:10;17.00;15.75;8.50
65574;PMS5003;73096;55.050;73.422;2023-12-20T08:23:13;19.00;17.00;8.00
65574;PMS5003;73096;55.050;73.422;2023-12-20T08:26:18;19.00;16.75;8.75
65574;PMS5003;73096;55.050;73.422;2023-12-20T08:29:21;18.00;15.00;7.00
65574;PMS5003;73096;55.050;73.422;2023-12-20T08:32:26;18.33;14.67;8.00
65574;PMS5003;73096;55.050;73.422;2023-12-20T08:35:28;16.00;14.00;6.00
65574;PMS5003;73096;55.050;73.422;2023-12-20T08:38:30;18.67;16.67;7.00
65574;PMS5003;73096;55.050;73.422;2023-12-20T08:41:32;21.67;18.00;8.00
65574;PMS5003;73096;55.050;73.422;2023-12-20T08:44:35;19.00;19.00;7.00
65574;PMS5003;73096;55.050;73.422;2023-12-20T08:47:38;20.00;19.00;8.00
65574;PMS5003;73096;55.050;73.422;2023-12-20T08:50:41;21.00;19.00;7.00
65574;PMS5003;73096;55.050;73.422;2023-12-20T08:53:43;23.00;19.00;9.00
65574;PMS5003;73096;55.050;73.422;2023-12-20T08:56:46;22.00;18.00;9.00
65574;PMS5003;73096;55.050;73.422;2023-12-20T08:59:50;18.00;16.00;8.00
65574;PMS5003;73096;55.050;73.422;2023-12-20T09:02:52;19.00;16.50;8.00
65574;PMS5003;73096;55.050;73.422;2023-12-20T09:05:55;20.00;16.00;9.00
65574;PMS5003;73096;55.050;73.422;2023-12-20T09:08:58;20.75;16.75;8.75
65574;PMS5003;73096;55.050;73.422;2023-12-20T09:12:00;21.00;17.33;9.00
65574;PMS5003;73096;55.050;73.422;2023-12-20T09:15:02;20.00;18.00;10.00
65574;PMS5003;73096;55.050;73.422;2023-12-20T09:18:08;20.00;19.00;11.00
65574;PMS5003;73096;55.050;73.422;2023-12-20T09:21:11;19.00;17.00;10.00
65574;PMS5003;73096;55.050;73.422;2023-12-20T09:24:14;18.75;17.00;9.00
65574;PMS5003;73096;55.050;73.422;2023-12-20T09:27:16;21.00;17.00;10.00
65574;PMS5003;73096;55.050;73.422;2023-12-20T09:30:18;20.00;18.00;9.25
65574;PMS5003;73096;55.050;73.422;2023-12-20T09:33:21;20.50;19.00;9.00
65574;PMS5003;73096;55.050;73.422;2023-12-20T09:36:24;20.75;17.00;9.75
65574;PMS5003;73096;55.050;73.422;2023-12-20T09:39:26;21.00;19.00;10.50
65574;PMS5003;73096;55.050;73.422;2023-12-20T09:42:32;19.00;18.00;10.00
65574;PMS5003;73096;55.050;73.422;2023-12-20T09:45:41;19.00;19.00;11.00
65574;PMS5003;73096;55.050;73.422;2023-12-20T09:48:45;19.67;18.00;10.67
65574;PMS5003;73096;55.050;73.422;2023-12-20T09:51:47;18.50;18.25;10.00
65574;PMS5003;73096;55.050;73.422;2023-12-20T09:54:51;20.25;17.25;9.00
65574;PMS5003;73096;55.050;73.422;2023-12-20T09:57:54;18.67;17.00;10.00
65574;PMS5003;73096;55.050;73.422;2023-12-20T10:00:59;19.00;17.00;10.00
65574;PMS5003;73096;55.050;73.422;2023-12-20T10:04:04;19.33;17.67;10.00
65574;PMS5003;73096;55.050;73.422;2023-12-20T10:07:11;21.25;19.50;11.00
65574;PMS5003;73096;55.050;73.422;2023-12-20T10:10:15;25.60;20.60;13.40
65574;PMS5003;73096;55.050;73.422;2023-12-20T10:13:17;25.50;21.50;13.50
65574;PMS5003;73096;55.050;73.422;2023-12-20T10:16:24;25.75;22.00;14.00
65574;PMS5003;73096;55.050;73.422;2023-12-20T10:19:27;25.00;22.00;14.00
65574;PMS5003;73096;55.050;73.422;2023-12-20T10:22:31;20.00;19.00;12.00
65574;PMS5003;73096;55.050;73.422;2023-12-20T10:25:38;21.00;19.00;11.75
65574;PMS5003;73096;55.050;73.422;2023-12-20T10:28:41;22.00;21.00;13.00
65574;PMS5003;73096;55.050;73.422;2023-12-20T10:31:44;22.00;20.00;12.00
65574;PMS5003;73096;55.050;73.422;2023-12-20T10:34:48;18.25;18.00;11.00
65574;PMS5003;73096;55.050;73.422;2023-12-20T10:37:52;22.00;20.00;11.00
65574;PMS5003;73096;55.050;73.422;2023-12-20T10:40:57;23.00;20.00;13.00
65574;PMS5003;73096;55.050;73.422;2023-12-20T10:44:02;22.00;20.00;12.00
65574;PMS5003;73096;55.050;73.422;2023-12-20T10:47:05;21.00;20.00;13.00
65574;PMS5003;73096;55.050;73.422;2023-12-20T10:50:08;26.00;23.00;14.00
65574;PMS5003;73096;55.050;73.422;2023-12-20T10:53:11;27.00;22.67;14.67
65574;PMS5003;73096;55.050;73.422;2023-12-20T10:56:16;23.00;20.00;14.00
65574;PMS5003;73096;55.050;73.422;2023-12-20T10:59:19;22.00;20.00;13.00
65574;PMS5003;73096;55.050;73.422;2023-12-20T11:02:22;19.25;18.00;12.50
65574;PMS5003;73096;55.050;73.422;2023-12-20T11:05:30;21.00;18.50;10.00
65574;PMS5003;73096;55.050;73.422;2023-12-20T11:11:56;17.00;14.50;6.00
65574;PMS5003;73096;55.050;73.422;2023-12-20T11:15:00;17.00;15.50;7.00
65574;PMS5003;73096;55.050;73.422;2023-12-20T11:18:09;22.00;17.67;8.00
65574;PMS5003;73096;55.050;73.422;2023-12-20T11:21:12;20.67;17.33;9.33
65574;PMS5003;73096;55.050;73.422;2023-12-20T11:24:16;21.75;18.00;11.00
65574;PMS5003;73096;55.050;73.422;2023-12-20T11:27:19;19.00;18.00;11.00
65574;PMS5003;73096;55.050;73.422;2023-12-20T11:30:22;19.00;18.00;11.67
65574;PMS5003;73096;55.050;73.422;2023-12-20T11:33:24;23.00;20.00;13.00
65574;PMS5003;73096;55.050;73.422;2023-12-20T11:36:26;20.25;19.25;12.75
65574;PMS5003;73096;55.050;73.422;2023-12-20T11:39:35;20.00;17.00;11.00
65574;PMS5003;73096;55.050;73.422;2023-12-20T11:42:39;20.00;18.00;11.00
65574;PMS5003;73096;55.050;73.422;2023-12-20T11:45:48;19.00;15.50;10.00
65574;PMS5003;73096;55.050;73.422;2023-12-20T11:48:54;17.75;15.00;7.25
65574;PMS5003;73096;55.050;73.422;2023-12-20T11:51:57;14.75;13.00;5.00
65574;PMS5003;73096;55.050;73.422;2023-12-20T11:54:59;16.50;13.50;5.00
65574;PMS5003;73096;55.050;73.422;2023-12-20T11:58:02;15.50;13.00;4.00
65574;PMS5003;73096;55.050;73.422;2023-12-20T12:01:05;15.00;13.50;6.00
65574;PMS5003;73096;55.050;73.422;2023-12-20T12:04:09;16.75;15.00;6.50
65574;PMS5003;73096;55.050;73.422;2023-12-20T12:07:12;16.00;15.00;8.00
65574;PMS5003;73096;55.050;73.422;2023-12-20T12:10:14;17.67;15.00;8.33
65574;PMS5003;73096;55.050;73.422;2023-12-20T12:13:17;19.67;17.33;9.33
65574;PMS5003;73096;55.050;73.422;2023-12-20T12:16:31;19.00;17.67;10.00
65574;PMS5003;73096;55.050;73.422;2023-12-20T12:19:43;20.00;17.67;9.00
65574;PMS5003;73096;55.050;73.422;2023-12-20T12:22:56;18.00;16.00;7.00
65574;PMS5003;73096;55.050;73.422;2023-12-20T12:26:00;18.25;15.25;7.25
65574;PMS5003;73096;55.050;73.422;2023-12-20T12:29:09;23.75;19.00;8.75
65574;PMS5003;73096;55.050;73.422;2023-12-20T12:32:12;22.25;17.75;8.75
65574;PMS5003;73096;55.050;73.422;2023-12-20T12:35:28;20.00;17.00;8.00
65574;PMS5003;73096;55.050;73.422;2023-12-20T12:38:30;23.33;18.00;11.00
65574;PMS5003;73096;55.050;73.422;2023-12-20T12:41:34;25.00;20.00;13.00
65574;PMS5003;73096;55.050;73.422;2023-12-20T12:44:56;21.75;18.25;11.50
65574;PMS5003;73096;55.050;73.422;2023-12-20T12:47:58;20.00;18.75;11.00
65574;PMS5003;73096;55.050;73.422;2023-12-20T12:51:01;20.00;17.00;11.00
65574;PMS5003;73096;55.050;73.422;2023-12-20T12:54:03;20.00;17.50;10.00
65574;PMS5003;73096;55.050;73.422;2023-12-20T12:57:07;20.00;17.75;9.25
65574;PMS5003;73096;55.050;73.422;2023-12-20T13:00:10;20.00;18.00;11.00
65574;PMS5003;73096;55.050;73.422;2023-12-20T13:03:13;20.67;17.00;10.00
65574;PMS5003;73096;55.050;73.422;2023-12-20T13:06:16;20.00;15.50;8.75
65574;PMS5003;73096;55.050;73.422;2023-12-20T13:09:19;18.00;15.50;8.00
65574;PMS5003;73096;55.050;73.422;2023-12-20T13:12:26;15.00;14.00;6.00
65574;PMS5003;73096;55.050;73.422;2023-12-20T13:15:43;19.67;16.67;8.67
65574;PMS5003;73096;55.050;73.422;2023-12-20T13:18:53;20.00;15.75;7.25
65574;PMS5003;73096;55.050;73.422;2023-12-20T13:21:57;19.00;14.75;5.25
65574;PMS5003;73096;55.050;73.422;2023-12-20T13:25:01;15.00;14.00;6.00
65574;PMS5003;73096;55.050;73.422;2023-12-20T13:28:07;14.00;13.00;5.00
65574;PMS5003;73096;55.050;73.422;2023-12-20T13:31:10;15.00;13.25;5.75
65574;PMS5003;73096;55.050;73.422;2023-12-20T13:34:13;15.00;13.25;5.00
65574;PMS5003;73096;55.050;73.422;2023-12-20T13:37:16;15.00;14.00;4.50
65574;PMS5003;73096;55.050;73.422;2023-12-20T13:40:29;16.00;14.25;6.00
65574;PMS5003;73096;55.050;73.422;2023-12-20T13:43:32;17.00;14.67;7.00
65574;PMS5003;73096;55.050;73.422;2023-12-20T13:46:35;17.00;14.00;6.00
65574;PMS5003;73096;55.050;73.422;2023-12-20T13:49:37;16.50;14.50;6.50
65574;PMS5003;73096;55.050;73.422;2023-12-20T13:52:39;17.00;15.00;6.67
65574;PMS5003;73096;55.050;73.422;2023-12-20T13:55:43;16.75;15.00;7.00
65574;PMS5003;73096;55.050;73.422;2023-12-20T13:58:46;15.00;13.50;5.00
65574;PMS5003;73096;55.050;73.422;2023-12-20T14:01:49;14.00;13.75;5.50
65574;PMS5003;73096;55.050;73.422;2023-12-20T14:04:52;15.00;14.00;6.25
65574;PMS5003;73096;55.050;73.422;2023-12-20T14:07:55;15.00;13.00;6.00
65574;PMS5003;73096;55.050;73.422;2023-12-20T14:10:59;15.00;14.00;6.00
65574;PMS5003;73096;55.050;73.422;2023-12-20T14:14:02;13.00;12.00;4.00
65574;PMS5003;73096;55.050;73.422;2023-12-20T14:17:06;11.25;10.75;3.25
65574;PMS5003;73096;55.050;73.422;2023-12-20T14:20:12;12.00;11.00;4.00
65574;PMS5003;73096;55.050;73.422;2023-12-20T14:23:16;13.00;12.00;4.00
65574;PMS5003;73096;55.050;73.422;2023-12-20T14:26:19;14.00;11.00;4.00
65574;PMS5003;73096;55.050;73.422;2023-12-20T14:29:22;15.00;11.00;4.00
65574;PMS5003;73096;55.050;73.422;2023-12-20T14:32:24;13.00;11.00;4.00
65574;PMS5003;73096;55.050;73.422;2023-12-20T14:35:29;13.00;11.00;4.00
65574;PMS5003;73096;55.050;73.422;2023-12-20T14:38:31;13.00;12.33;4.00
65574;PMS5003;73096;55.050;73.422;2023-12-20T14:41:34;13.00;12.00;4.00
65574;PMS5003;73096;55.050;73.422;2023-12-20T14:44:38;13.00;12.00;3.00
65574;PMS5003;73096;55.050;73.422;2023-12-20T14:47:41;11.00;11.00;2.00
65574;PMS5003;73096;55.050;73.422;2023-12-20T14:50:44;10.75;10.75;2.75
65574;PMS5003;73096;55.050;73.422;2023-12-20T14:53:50;11.00;8.00;2.00
65574;PMS5003;73096;55.050;73.422;2023-12-20T14:56:53;13.00;10.00;3.00
65574;PMS5003;73096;55.050;73.422;2023-12-20T14:59:55;13.00;10.67;3.67
65574;PMS5003;73096;55.050;73.422;2023-12-20T15:02:58;13.75;12.00;4.00
65574;PMS5003;73096;55.050;73.422;2023-12-20T15:06:02;12.25;11.25;4.00
65574;PMS5003;73096;55.050;73.422;2023-12-20T15:09:06;14.50;13.00;4.00
65574;PMS5003;73096;55.050;73.422;2023-12-20T15:12:09;14.75;12.00;4.00
65574;PMS5003;73096;55.050;73.422;2023-12-20T15:15:12;15.00;13.75;6.00
65574;PMS5003;73096;55.050;73.422;2023-12-20T15:18:16;13.25;12.00;6.00
65574;PMS5003;73096;55.050;73.422;2023-12-20T15:21:19;14.75;14.00;6.00
65574;PMS5003;73096;55.050;73.422;2023-12-20T15:24:21;15.00;14.00;4.00
65574;PMS5003;73096;55.050;73.422;2023-12-20T15:27:31;13.00;12.25;4.00
65574;PMS5003;73096;55.050;73.422;2023-12-20T15:30:33;14.75;12.50;4.00
65574;PMS5003;73096;55.050;73.422;2023-12-20T15:33:36;15.00;12.75;5.00
65574;PMS5003;73096;55.050;73.422;2023-12-20T15:36:39;14.75;12.25;6.00
65574;PMS5003;73096;55.050;73.422;2023-12-20T15:39:41;13.00;12.00;4.00
65574;PMS5003;73096;55.050;73.422;2023-12-20T15:42:45;13.00;12.00;4.00
65574;PMS5003;73096;55.050;73.422;2023-12-20T15:45:48;12.75;9.00;4.00
65574;PMS5003;73096;55.050;73.422;2023-12-20T15:48:51;16.00;12.50;5.75
65574;PMS5003;73096;55.050;73.422;2023-12-20T15:51:55;14.00;12.00;4.75
65574;PMS5003;73096;55.050;73.422;2023-12-20T15:54:58;13.00;10.00;4.00
65574;PMS5003;73096;55.050;73.422;2023-12-20T15:58:01;14.00;10.50;5.00
65574;PMS5003;73096;55.050;73.422;2023-12-20T16:01:05;14.50;12.75;5.00
65574;PMS5003;73096;55.050;73.422;2023-12-20T16:04:07;15.00;13.25;5.00
65574;PMS5003;73096;55.050;73.422;2023-12-20T16:07:10;14.00;12.00;5.00
65574;PMS5003;73096;55.050;73.422;2023-12-20T16:10:13;11.50;10.00;4.00
65574;PMS5003;73096;55.050;73.422;2023-12-20T16:13:16;12.00;11.00;4.00
65574;PMS5003;73096;55.050;73.422;2023-12-20T16:16:20;12.00;10.75;3.00
65574;PMS5003;73096;55.050;73.422;2023-12-20T16:19:23;12.75;10.00;4.00
65574;PMS5003;73096;55.050;73.422;2023-12-20T16:22:26;8.50;7.00;2.00
65574;PMS5003;73096;55.050;73.422;2023-12-20T16:25:28;9.00;8.00;3.33
65574;PMS5003;73096;55.050;73.422;2023-12-20T16:28:30;9.00;8.00;4.00
65574;PMS5003;73096;55.050;73.422;2023-12-20T16:31:33;8.00;6.00;2.00
65574;PMS5003;73096;55.050;73.422;2023-12-20T16:34:35;9.75;8.00;2.00
65574;PMS5003;73096;55.050;73.422;2023-12-20T16:37:38;10.00;8.00;2.00
65574;PMS5003;73096;55.050;73.422;2023-12-20T16:40:41;10.00;8.00;2.33
65574;PMS5003;73096;55.050;73.422;2023-12-20T16:43:45;11.00;8.00;3.00
65574;PMS5003;73096;55.050;73.422;2023-12-20T16:46:49;12.75;8.25;4.00
65574;PMS5003;73096;55.050;73.422;2023-12-20T16:49:54;11.00;8.00;3.00
65574;PMS5003;73096;55.050;73.422;2023-12-20T16:52:57;9.00;7.00;3.50
65574;PMS5003;73096;55.050;73.422;2023-12-20T16:55:59;10.00;6.00;3.00
65574;PMS5003;73096;55.050;73.422;2023-12-20T16:59:01;9.75;7.00;4.00
65574;PMS5003;73096;55.050;73.422;2023-12-20T17:02:05;9.25;6.00;2.50
65574;PMS5003;73096;55.050;73.422;2023-12-20T17:05:07;9.00;6.50;3.00
65574;PMS5003;73096;55.050;73.422;2023-12-20T17:08:11;9.00;7.25;2.75